createdAt,value
2019-04-04T00:01:32.723Z,20.60
2019-04-04T00:04:04.107Z,19.10
2019-04-04T00:06:35.379Z,19.77
2019-04-04T00:09:10.307Z,18.98
2019-04-04T00:11:41.693Z,18.23
2019-04-04T00:14:13.521Z,18.30
2019-04-04T00:16:46.742Z,18.00
2019-04-04T00:19:18.083Z,17.82
2019-04-04T00:21:49.471Z,18.17
2019-04-04T00:24:20.829Z,18.05
2019-04-04T00:26:52.128Z,18.12
2019-04-04T00:29:23.419Z,18.10
2019-04-04T00:31:54.611Z,18.35
2019-04-04T00:34:27.946Z,18.27
2019-04-04T00:36:58.803Z,17.77
2019-04-04T00:39:31.134Z,17.37
2019-04-04T00:42:02.784Z,17.77
2019-04-04T00:44:34.186Z,16.65
2019-04-04T00:47:05.410Z,18.67
2019-04-04T00:49:37.702Z,17.90
2019-04-04T00:52:10.333Z,16.70
2019-04-04T00:54:44.654Z,17.30
2019-04-04T00:57:18.576Z,18.17
2019-04-04T00:59:48.693Z,19.05
2019-04-04T01:02:20.130Z,18.00
2019-04-04T01:04:51.679Z,17.92
2019-04-04T01:07:23.073Z,17.10
2019-04-04T01:09:54.785Z,16.80
2019-04-04T01:12:26.321Z,14.95
2019-04-04T01:15:00.120Z,15.78
2019-04-04T01:17:33.020Z,15.70
2019-04-04T01:20:06.649Z,15.13
2019-04-04T01:22:38.119Z,14.98
2019-04-04T01:25:09.695Z,14.38
2019-04-04T01:27:41.206Z,13.18
2019-04-04T01:30:12.778Z,14.10
2019-04-04T01:32:44.005Z,13.13
2019-04-04T01:35:15.255Z,13.05
2019-04-04T01:37:46.524Z,13.70
2019-04-04T01:40:17.787Z,12.98
2019-04-04T01:42:48.963Z,12.53
2019-04-04T01:45:20.134Z,11.70
2019-04-04T01:47:51.398Z,10.95
2019-04-04T01:50:23.298Z,11.28
2019-04-04T01:52:54.640Z,10.75
2019-04-04T01:55:25.936Z,10.25
2019-04-04T01:57:57.113Z,10.30
2019-04-04T02:00:28.542Z,9.65
2019-04-04T02:02:59.711Z,9.55
2019-04-04T02:05:30.898Z,9.80
2019-04-04T02:08:02.405Z,9.03
2019-04-04T02:10:34.937Z,8.83
2019-04-04T02:13:09.624Z,8.93
2019-04-04T02:15:39.374Z,8.85
2019-04-04T02:18:10.514Z,9.58
2019-04-04T02:20:41.694Z,9.23
2019-04-04T02:23:12.894Z,10.28
2019-04-04T02:25:44.124Z,9.05
2019-04-04T02:28:15.280Z,9.68
2019-04-04T02:30:48.478Z,9.05
2019-04-04T02:33:19.334Z,10.17
2019-04-04T02:35:50.572Z,8.47
2019-04-04T02:38:21.806Z,9.08
2019-04-04T02:40:53.029Z,9.98
2019-04-04T02:43:27.337Z,9.47
2019-04-04T02:45:57.084Z,9.08
2019-04-04T02:48:28.231Z,9.40
2019-04-04T02:50:59.360Z,8.97
2019-04-04T02:53:30.501Z,9.13
2019-04-04T02:56:03.239Z,8.15
2019-04-04T02:58:34.642Z,8.60
2019-04-04T03:01:05.834Z,8.68
2019-04-04T03:03:41.151Z,8.90
2019-04-04T03:06:09.829Z,8.13
2019-04-04T03:08:41.035Z,9.15
2019-04-04T03:11:12.191Z,8.87
2019-04-04T03:13:43.358Z,8.10
2019-04-04T03:16:14.528Z,7.93
2019-04-04T03:18:45.682Z,7.15
2019-04-04T03:21:16.815Z,7.90
2019-04-04T03:23:48.051Z,7.85
2019-04-04T03:26:20.595Z,7.60
2019-04-04T03:28:51.854Z,7.05
2019-04-04T03:31:22.968Z,7.03
2019-04-04T03:33:54.163Z,6.70
2019-04-04T03:36:25.279Z,6.90
2019-04-04T03:38:56.443Z,6.13
2019-04-04T03:41:30.673Z,6.47
2019-04-04T03:44:00.440Z,5.60
2019-04-04T03:46:37.434Z,5.67
2019-04-04T03:49:05.540Z,5.70
2019-04-04T03:51:37.986Z,5.73
2019-04-04T03:54:16.721Z,5.67
2019-04-04T03:56:47.885Z,5.70
2019-04-04T03:59:18.975Z,5.87
2019-04-04T04:01:50.147Z,6.55
2019-04-04T04:04:26.809Z,5.95
2019-04-04T04:06:55.969Z,5.75
2019-04-04T04:09:27.328Z,5.73
2019-04-04T04:11:58.628Z,5.47
2019-04-04T04:14:29.826Z,5.35
2019-04-04T04:17:01.187Z,10.73
2019-04-04T04:19:32.392Z,7.12
2019-04-04T04:22:03.552Z,5.08
2019-04-04T04:24:34.743Z,5.60
2019-04-04T04:27:05.934Z,5.35
2019-04-04T04:29:37.136Z,6.07
2019-04-04T04:32:08.293Z,6.97
2019-04-04T04:34:39.459Z,6.30
2019-04-04T04:37:10.641Z,7.35
2019-04-04T04:39:41.779Z,6.60
2019-04-04T04:42:13.039Z,7.03
2019-04-04T04:44:44.179Z,6.92
2019-04-04T04:47:15.339Z,6.47
2019-04-04T04:49:46.553Z,6.37
2019-04-04T04:52:17.751Z,6.70
2019-04-04T04:54:48.943Z,5.80
2019-04-04T04:57:29.354Z,5.87
2019-04-04T04:59:53.019Z,5.90
2019-04-04T05:02:24.144Z,5.33
2019-04-04T05:04:55.272Z,5.40
2019-04-04T05:07:26.432Z,6.00
2019-04-04T05:09:57.592Z,5.77
2019-04-04T05:12:28.744Z,5.93
2019-04-04T05:15:01.432Z,5.67
2019-04-04T05:17:32.837Z,6.40
2019-04-04T05:20:04.812Z,8.37
2019-04-04T05:22:35.950Z,6.23
2019-04-04T05:25:08.726Z,5.70
2019-04-04T05:27:40.311Z,6.13
2019-04-04T05:30:11.519Z,5.90
2019-04-04T05:32:42.705Z,5.50
2019-04-04T05:35:15.225Z,5.83
2019-04-04T05:37:46.653Z,6.40
2019-04-04T05:40:17.832Z,6.60
2019-04-04T05:42:49.090Z,6.00
2019-04-04T05:45:20.227Z,6.20
2019-04-04T05:47:54.973Z,6.37
2019-04-04T05:50:25.400Z,6.60
2019-04-04T05:52:56.517Z,6.40
2019-04-04T05:55:27.693Z,6.60
2019-04-04T05:57:58.834Z,7.33
2019-04-04T06:00:29.984Z,6.60
2019-04-04T06:03:01.160Z,7.37
2019-04-04T06:05:32.354Z,7.12
2019-04-04T06:08:03.549Z,8.03
2019-04-04T06:10:34.936Z,6.67
2019-04-04T06:13:06.101Z,7.67
2019-04-04T06:15:37.248Z,7.33
2019-04-04T06:18:10.977Z,6.70
2019-04-04T06:20:41.268Z,8.47
2019-04-04T06:23:12.441Z,10.45
2019-04-04T06:25:43.616Z,9.63
2019-04-04T06:28:14.801Z,9.97
2019-04-04T06:30:45.997Z,11.07
2019-04-04T06:33:17.245Z,10.23
2019-04-04T06:35:48.434Z,10.20
2019-04-04T06:38:23.080Z,11.07
2019-04-04T06:40:53.556Z,10.77
2019-04-04T06:43:24.750Z,11.23
2019-04-04T06:45:55.934Z,10.53
2019-04-04T06:48:29.298Z,12.00
2019-04-04T06:51:00.018Z,11.03
2019-04-04T06:53:31.205Z,12.07
2019-04-04T06:56:03.027Z,11.70
2019-04-04T06:58:34.276Z,12.25
2019-04-04T07:01:05.446Z,11.97
2019-04-04T07:03:36.639Z,11.73
2019-04-04T07:06:09.837Z,14.35
2019-04-04T07:08:40.687Z,13.33
2019-04-04T07:11:21.096Z,13.08
2019-04-04T07:13:44.940Z,13.62
2019-04-04T07:16:16.089Z,13.22
2019-04-04T07:18:47.316Z,13.70
2019-04-04T07:21:20.207Z,13.75
2019-04-04T07:23:51.450Z,14.07
2019-04-04T07:26:22.684Z,14.97
2019-04-04T07:28:54.118Z,16.30
2019-04-04T07:31:26.299Z,14.98
2019-04-04T07:33:57.463Z,15.75
2019-04-04T07:36:28.638Z,15.88
2019-04-04T07:39:00.338Z,16.52
2019-04-04T07:41:33.990Z,17.02
2019-04-04T07:44:05.188Z,15.67
2019-04-04T07:46:36.332Z,15.78
2019-04-04T07:49:07.504Z,17.60
2019-04-04T07:51:38.647Z,17.62
2019-04-04T07:54:09.880Z,18.03
2019-04-04T07:56:41.028Z,19.05
2019-04-04T07:59:12.508Z,18.90
2019-04-04T08:01:50.977Z,17.23
2019-04-04T08:04:16.627Z,18.82
2019-04-04T08:06:47.790Z,21.07
2019-04-04T08:09:19.030Z,21.77
2019-04-04T08:11:50.200Z,20.12
2019-04-04T08:14:21.381Z,20.27
2019-04-04T08:16:52.561Z,21.02
2019-04-04T08:19:23.709Z,20.50
2019-04-04T08:21:54.887Z,20.47
2019-04-04T08:24:26.106Z,20.80
2019-04-04T08:26:57.287Z,22.27
2019-04-04T08:29:28.455Z,21.42
2019-04-04T08:31:59.627Z,21.57
2019-04-04T08:34:31.004Z,21.70
2019-04-04T08:37:02.184Z,22.22
2019-04-04T08:39:33.340Z,20.85
2019-04-04T08:42:04.564Z,22.93
2019-04-04T08:44:35.707Z,23.20
2019-04-04T08:47:06.907Z,21.93
2019-04-04T08:49:38.084Z,22.82
2019-04-04T08:52:16.461Z,24.05
2019-04-04T08:54:42.204Z,24.50
2019-04-04T08:57:13.348Z,24.95
2019-04-04T08:59:44.500Z,23.42
2019-04-04T09:02:15.724Z,24.47
2019-04-04T09:04:46.910Z,24.98
2019-04-04T09:07:18.060Z,25.10
2019-04-04T09:09:49.349Z,25.17
2019-04-04T09:12:20.538Z,26.27
2019-04-04T09:14:51.851Z,26.15
2019-04-04T09:17:23.032Z,25.93
2019-04-04T09:19:54.275Z,25.80
2019-04-04T09:22:25.426Z,27.32
2019-04-04T09:24:57.604Z,26.12
2019-04-04T09:27:29.760Z,27.77
2019-04-04T09:30:00.917Z,26.93
2019-04-04T09:32:32.057Z,28.15
2019-04-04T09:35:03.269Z,28.65
2019-04-04T09:37:34.402Z,27.30
2019-04-04T09:40:06.228Z,26.87
2019-04-04T09:42:37.387Z,27.70
2019-04-04T09:45:09.080Z,29.25
2019-04-04T09:47:40.227Z,27.50
2019-04-04T09:50:12.596Z,26.90
2019-04-04T09:52:43.737Z,26.97
2019-04-04T09:55:14.990Z,25.88
2019-04-04T09:57:46.158Z,27.55
2019-04-04T10:00:19.322Z,26.95
2019-04-04T10:02:50.652Z,26.90
2019-04-04T10:05:21.796Z,25.45
2019-04-04T10:07:52.982Z,27.65
2019-04-04T10:10:24.197Z,28.45
2019-04-04T10:12:55.402Z,28.77
2019-04-04T10:15:26.555Z,27.90
2019-04-04T10:17:57.769Z,29.63
2019-04-04T10:20:28.991Z,30.00
2019-04-04T10:23:00.187Z,29.75
2019-04-04T10:25:31.834Z,28.12
2019-04-04T10:28:02.996Z,29.00
2019-04-04T10:30:34.158Z,29.87
2019-04-04T10:33:05.400Z,28.40
2019-04-04T10:35:36.562Z,28.40
2019-04-04T10:38:07.700Z,28.60
2019-04-04T10:40:38.834Z,27.82
2019-04-04T10:43:09.983Z,30.72
2019-04-04T10:45:41.121Z,30.68
2019-04-04T10:48:12.271Z,34.75
2019-04-04T10:50:43.428Z,35.30
2019-04-04T10:53:14.582Z,37.75
2019-04-04T10:55:45.839Z,35.63
2019-04-04T10:58:17.137Z,36.35
2019-04-04T11:00:48.300Z,34.25
2019-04-04T11:03:19.466Z,38.00
2019-04-04T11:05:50.629Z,35.00
2019-04-04T11:08:21.784Z,35.30
2019-04-04T11:10:53.007Z,34.23
2019-04-04T11:13:33.277Z,32.80
2019-04-04T11:15:57.109Z,31.95
2019-04-04T11:18:29.092Z,31.57
2019-04-04T11:21:00.375Z,32.28
2019-04-04T11:23:31.547Z,32.63
2019-04-04T11:26:03.844Z,33.75
2019-04-04T11:28:35.000Z,33.28
2019-04-04T11:31:06.187Z,32.03
2019-04-04T11:33:37.332Z,30.97
2019-04-04T11:36:08.571Z,31.87
2019-04-04T11:38:39.890Z,33.55
2019-04-04T11:41:11.099Z,32.58
2019-04-04T11:43:42.314Z,32.93
2019-04-04T11:46:13.552Z,33.33
2019-04-04T11:48:44.709Z,32.42
2019-04-04T11:51:15.896Z,32.90
2019-04-04T11:53:47.300Z,33.70
2019-04-04T11:56:18.458Z,32.70
2019-04-04T11:58:49.668Z,34.48
2019-04-04T12:01:21.446Z,31.90
2019-04-04T12:03:52.597Z,33.73
2019-04-04T12:06:23.784Z,34.10
2019-04-04T12:08:54.960Z,31.82
2019-04-04T12:11:26.105Z,31.00
2019-04-04T12:13:57.380Z,31.60
2019-04-04T12:16:28.636Z,30.35
2019-04-04T12:18:59.781Z,30.25
2019-04-04T12:21:30.928Z,30.08
2019-04-04T12:24:02.099Z,29.87
2019-04-04T12:26:33.351Z,31.23
2019-04-04T12:29:04.504Z,28.47
2019-04-04T12:31:36.819Z,29.12
2019-04-04T12:34:07.988Z,29.63
2019-04-04T12:36:39.130Z,29.23
2019-04-04T12:39:10.334Z,29.77
2019-04-04T12:41:42.564Z,31.75
2019-04-04T12:44:13.775Z,31.87
2019-04-04T12:46:44.999Z,29.90
2019-04-04T12:49:16.186Z,30.48
2019-04-04T12:51:47.340Z,30.10
2019-04-04T12:54:18.493Z,31.97
2019-04-04T12:56:49.701Z,30.20
2019-04-04T12:59:20.911Z,29.48
2019-04-04T13:01:52.115Z,29.92
2019-04-04T13:04:31.527Z,29.85
2019-04-04T13:06:56.307Z,28.52
2019-04-04T13:09:27.580Z,29.42
2019-04-04T13:11:58.782Z,28.20
2019-04-04T13:14:29.953Z,29.37
2019-04-04T13:17:01.144Z,29.15
2019-04-04T13:19:32.448Z,29.85
2019-04-04T13:22:03.846Z,28.17
2019-04-04T13:24:35.180Z,29.70
2019-04-04T13:27:06.477Z,29.23
2019-04-04T13:29:37.731Z,27.93
2019-04-04T13:32:09.171Z,29.52
2019-04-04T13:34:40.404Z,28.17
2019-04-04T13:37:11.912Z,29.12
2019-04-04T13:39:43.894Z,28.20
2019-04-04T13:42:16.654Z,27.52
2019-04-04T13:44:48.314Z,27.50
2019-04-04T13:47:19.563Z,26.25
2019-04-04T13:49:51.150Z,26.77
2019-04-04T13:52:26.086Z,27.27
2019-04-04T13:54:56.033Z,26.82
2019-04-04T13:57:28.363Z,27.15
2019-04-04T14:00:00.650Z,26.90
2019-04-04T14:02:32.488Z,26.93
2019-04-04T14:05:09.586Z,26.45
2019-04-04T14:07:37.090Z,25.32
2019-04-04T14:10:09.115Z,24.98
2019-04-04T14:12:40.375Z,26.35
2019-04-04T14:15:12.568Z,24.77
2019-04-04T14:17:44.315Z,26.57
2019-04-04T14:20:15.754Z,23.95
2019-04-04T14:22:47.789Z,27.07
2019-04-04T14:25:20.501Z,25.27
2019-04-04T14:27:57.813Z,24.23
2019-04-04T14:30:28.134Z,24.35
2019-04-04T14:32:59.839Z,25.65
2019-04-04T14:35:31.126Z,25.70
2019-04-04T14:38:02.493Z,25.17
2019-04-04T14:40:33.818Z,25.55
2019-04-04T14:43:05.071Z,25.02
2019-04-04T14:45:36.452Z,23.83
2019-04-04T14:48:08.732Z,27.93
2019-04-04T14:50:40.736Z,26.17
2019-04-04T14:53:12.018Z,25.70
2019-04-04T14:55:43.275Z,25.70
2019-04-04T14:58:16.523Z,24.77
2019-04-04T15:00:48.074Z,24.80
2019-04-04T15:03:20.851Z,25.90
2019-04-04T15:05:52.724Z,24.45
2019-04-04T15:08:23.999Z,24.65
2019-04-04T15:11:01.276Z,24.63
2019-04-04T15:13:34.232Z,24.23
2019-04-04T15:16:19.089Z,25.10
2019-04-04T15:18:53.115Z,24.07
2019-04-04T15:21:27.333Z,25.48
2019-04-04T15:23:58.952Z,25.37
2019-04-04T15:26:30.389Z,23.67
2019-04-04T15:29:01.689Z,25.37
2019-04-04T15:31:32.977Z,26.27
2019-04-04T15:34:04.282Z,26.17
2019-04-04T15:36:35.599Z,26.55
2019-04-04T15:39:07.500Z,26.30
2019-04-04T15:41:39.029Z,26.23
2019-04-04T15:44:10.468Z,26.87
2019-04-04T15:46:44.190Z,26.80
2019-04-04T15:49:15.465Z,25.05
2019-04-04T15:51:46.892Z,25.72
2019-04-04T15:54:18.951Z,26.40
2019-04-04T15:56:50.322Z,26.62
2019-04-04T15:59:21.668Z,27.15
2019-04-04T16:01:52.966Z,29.05
2019-04-04T16:04:24.299Z,26.40
2019-04-04T16:06:55.755Z,28.15
2019-04-04T16:09:30.304Z,26.65
2019-04-04T16:12:05.535Z,26.93
2019-04-04T16:14:43.678Z,28.55
2019-04-04T16:17:16.779Z,27.45
2019-04-04T16:19:48.302Z,27.60
2019-04-04T16:22:19.658Z,28.07
2019-04-04T16:24:53.445Z,27.40
2019-04-04T16:27:24.925Z,27.60
2019-04-04T16:29:56.249Z,26.65
2019-04-04T16:32:27.614Z,28.90
2019-04-04T16:34:59.009Z,27.82
2019-04-04T16:37:30.266Z,28.85
2019-04-04T16:40:08.629Z,27.22
2019-04-04T16:42:35.579Z,30.37
2019-04-04T16:45:07.641Z,29.42
2019-04-04T16:47:39.062Z,28.15
2019-04-04T16:50:10.445Z,27.52
2019-04-04T16:52:41.917Z,28.73
2019-04-04T16:55:13.592Z,29.05
2019-04-04T16:57:45.036Z,29.32
2019-04-04T17:00:16.793Z,28.38
2019-04-04T17:02:48.334Z,29.18
2019-04-04T17:05:20.105Z,29.02
2019-04-04T17:07:51.559Z,28.47
2019-04-04T17:10:22.999Z,28.83
2019-04-04T17:12:54.279Z,29.55
2019-04-04T17:15:27.340Z,28.73
2019-04-04T17:17:58.668Z,30.20
2019-04-04T17:20:29.930Z,29.95
2019-04-04T17:23:01.267Z,32.03
2019-04-04T17:25:32.743Z,30.37
2019-04-04T17:28:04.496Z,29.37
2019-04-04T17:30:36.142Z,31.05
2019-04-04T17:33:07.517Z,29.55
2019-04-04T17:35:39.394Z,30.00
2019-04-04T17:38:10.962Z,29.32
2019-04-04T17:40:42.399Z,31.07
2019-04-04T17:43:13.795Z,31.25
2019-04-04T17:45:45.075Z,31.73
2019-04-04T17:48:16.568Z,31.12
2019-04-04T17:50:48.708Z,31.42
2019-04-04T17:53:20.284Z,33.02
2019-04-04T17:55:55.533Z,31.73
2019-04-04T17:58:27.960Z,33.42
2019-04-04T18:01:06.893Z,31.87
2019-04-04T18:03:41.008Z,33.88
2019-04-04T18:06:12.573Z,34.03
2019-04-04T18:08:44.014Z,35.05
2019-04-04T18:11:15.512Z,34.25
2019-04-04T18:13:46.923Z,35.15
2019-04-04T18:16:18.523Z,37.38
2019-04-04T18:18:49.938Z,37.20
2019-04-04T18:21:21.169Z,36.50
2019-04-04T18:23:52.839Z,37.08
2019-04-04T18:26:24.301Z,39.42
2019-04-04T18:28:55.740Z,38.53
2019-04-04T18:31:28.290Z,38.65
2019-04-04T18:33:59.846Z,41.08
2019-04-04T18:36:31.280Z,39.08
2019-04-04T18:39:02.676Z,41.28
2019-04-04T18:41:35.934Z,42.20
2019-04-04T18:44:07.263Z,43.33
2019-04-04T18:46:38.574Z,42.62
2019-04-04T18:49:09.894Z,41.35
2019-04-04T18:55:19.546Z,43.95
2019-04-04T18:57:43.989Z,44.25
2019-04-04T19:00:15.777Z,44.55
2019-04-04T19:02:54.098Z,45.98
2019-04-04T19:05:26.399Z,42.98
2019-04-04T19:07:59.702Z,43.02
2019-04-04T19:10:33.029Z,45.80
2019-04-04T19:13:07.477Z,44.90
2019-04-04T19:15:44.967Z,48.02
2019-04-04T19:18:16.416Z,45.88
2019-04-04T19:21:04.433Z,44.65
2019-04-04T19:23:48.655Z,45.28
2019-04-04T19:26:20.057Z,46.37
2019-04-04T19:28:53.826Z,44.18
2019-04-04T19:31:25.068Z,43.05
2019-04-04T19:33:56.461Z,45.85
2019-04-04T19:36:27.763Z,44.03
2019-04-04T19:39:00.403Z,45.65
2019-04-04T19:41:34.317Z,45.80
2019-04-04T19:44:05.985Z,49.27
2019-04-04T19:46:37.558Z,45.20
2019-04-04T19:49:08.948Z,45.88
2019-04-04T19:51:40.254Z,47.07
2019-04-04T19:54:11.596Z,45.43
2019-04-04T19:56:42.980Z,45.90
2019-04-04T19:59:14.768Z,44.10
2019-04-04T20:01:46.104Z,46.33
2019-04-04T20:04:17.590Z,48.00
2019-04-04T20:06:48.879Z,47.13
2019-04-04T20:09:20.329Z,45.63
2019-04-04T20:11:52.222Z,46.37
2019-04-04T20:14:27.463Z,44.83
2019-04-04T20:16:56.543Z,45.67
2019-04-04T20:19:28.072Z,46.80
2019-04-04T20:21:59.335Z,46.85
2019-04-04T20:24:30.987Z,47.70
2019-04-04T20:27:05.238Z,47.23
2019-04-04T20:29:36.497Z,46.98
2019-04-04T20:32:08.148Z,47.13
2019-04-04T20:34:39.741Z,47.48
2019-04-04T20:37:11.224Z,44.50
2019-04-04T20:39:42.753Z,46.28
2019-04-04T20:42:14.133Z,44.90
2019-04-04T20:44:45.636Z,46.23
2019-04-04T20:47:17.349Z,46.45
2019-04-04T20:49:48.789Z,48.15
2019-04-04T20:52:20.299Z,44.93
2019-04-04T20:54:51.573Z,47.53
2019-04-04T20:57:22.991Z,46.40
2019-04-04T20:59:54.223Z,45.73
2019-04-04T21:02:26.770Z,45.98
2019-04-04T21:04:58.140Z,47.25
2019-04-04T21:07:29.550Z,45.92
2019-04-04T21:10:02.088Z,45.77
2019-04-04T21:12:33.472Z,45.52
2019-04-04T21:15:07.793Z,44.95
2019-04-04T21:17:39.206Z,45.20
2019-04-04T21:20:10.722Z,46.73
2019-04-04T21:22:42.143Z,47.27
2019-04-04T21:25:13.443Z,46.63
2019-04-04T21:27:44.810Z,49.60
2019-04-04T21:30:16.981Z,45.92
2019-04-04T21:32:48.255Z,44.85
2019-04-04T21:35:19.492Z,45.12
2019-04-04T21:37:50.791Z,43.98
2019-04-04T21:40:22.052Z,44.53
2019-04-04T21:42:54.051Z,44.75
2019-04-04T21:45:27.424Z,43.40
2019-04-04T21:47:58.311Z,44.63
2019-04-04T21:50:29.695Z,45.73
2019-04-04T21:53:00.918Z,48.48
2019-04-04T21:55:32.213Z,44.88
2019-04-04T21:58:03.687Z,45.58
2019-04-04T22:00:41.318Z,46.60
2019-04-04T22:03:13.346Z,46.10
2019-04-04T22:05:44.701Z,46.50
2019-04-04T22:08:15.998Z,44.40
2019-04-04T22:10:47.375Z,44.70
2019-04-04T22:13:18.828Z,45.55
2019-04-04T22:15:50.209Z,47.83
2019-04-04T22:18:21.530Z,45.90
2019-04-04T22:20:52.884Z,47.50
2019-04-04T22:23:24.184Z,46.13
2019-04-04T22:25:55.465Z,44.37
2019-04-04T22:28:26.856Z,45.47
2019-04-04T22:30:58.086Z,43.23
2019-04-04T22:33:29.431Z,45.88
2019-04-04T22:36:00.693Z,47.23
2019-04-04T22:38:32.005Z,45.63
2019-04-04T22:41:03.426Z,44.90
2019-04-04T22:43:34.800Z,45.13
2019-04-04T22:46:06.196Z,45.48
2019-04-04T22:48:37.513Z,47.03
2019-04-04T22:51:08.787Z,45.98
2019-04-04T22:53:40.067Z,46.25
2019-04-04T22:56:11.356Z,44.13
2019-04-04T22:58:42.676Z,46.85
2019-04-04T23:01:14.044Z,44.38
2019-04-04T23:03:45.288Z,45.08
2019-04-04T23:06:16.534Z,45.60
2019-04-04T23:08:47.898Z,45.85
2019-04-04T23:11:19.156Z,45.08
2019-04-04T23:13:50.415Z,46.90
2019-04-04T23:16:21.711Z,46.05
2019-04-04T23:18:53.021Z,46.10
2019-04-04T23:21:24.338Z,44.42
2019-04-04T23:23:55.592Z,42.85
2019-04-04T23:26:26.879Z,42.63
2019-04-04T23:28:59.135Z,42.83
2019-04-04T23:31:30.411Z,44.42
2019-04-04T23:34:01.939Z,42.00
2019-04-04T23:36:35.253Z,42.37
2019-04-04T23:39:07.485Z,42.77
2019-04-04T23:41:38.731Z,41.48
2019-04-04T23:44:10.181Z,41.43
2019-04-04T23:46:41.466Z,42.25
2019-04-04T23:49:12.691Z,42.55
2019-04-04T23:51:44.079Z,43.87
2019-04-04T23:54:15.349Z,45.07
2019-04-04T23:56:46.737Z,41.93
2019-04-04T23:59:18.025Z,44.30
